Time;durP1;ratioP1;P1;durP2;ratioP2;P2;SDS_P1;SDS_P2;PMS_P1;PMS_P2;Temp;Humidity;BMP_temperature;BMP_pressure;BME280_temperature;BME280_humidity;BME280_pressure;Samples;Min_cycle;Max_cycle;Signal;HPM_P1;HPM_P2
2022/01/06 00:01:25;;;;;;;5.40;2.35;;;4.40;99.90;;;;;;5020292;28;20045;-82
2022/01/06 00:03:52;;;;;;;8.02;3.17;;;4.40;99.90;;;;;;5020164;28;20051;-82
2022/01/06 00:06:18;;;;;;;9.70;3.17;;;4.40;99.90;;;;;;5037781;28;20045;-83
2022/01/06 00:08:44;;;;;;;6.40;3.38;;;4.30;99.90;;;;;;5015934;28;20139;-81
2022/01/06 00:11:11;;;;;;;9.00;4.18;;;4.30;99.90;;;;;;5037057;28;20078;-82
2022/01/06 00:16:17;;;;;;;11.35;2.88;;;4.30;99.90;;;;;;5037577;28;20849;-82
2022/01/06 00:23:17;;;;;;;9.80;4.13;;;4.30;99.90;;;;;;5020646;28;20443;-81
2022/01/06 00:24:22;;;;;;;8.90;3.75;;;4.30;99.90;;;;;;5019325;28;20087;-81
2022/01/06 00:26:49;;;;;;;8.25;3.05;;;4.40;99.90;;;;;;5038165;28;20051;-80
2022/01/06 00:29:16;;;;;;;10.38;3.30;;;4.40;99.90;;;;;;5020083;28;20044;-80
2022/01/06 00:31:41;;;;;;;8.48;3.65;;;4.40;99.90;;;;;;5019885;28;20056;-80
2022/01/06 00:34:10;;;;;;;5.22;2.30;;;4.50;99.90;;;;;;5021795;28;20826;-81
2022/01/06 00:36:40;;;;;;;7.95;2.85;;;4.50;99.90;;;;;;5039092;28;20041;-81
2022/01/06 00:39:07;;;;;;;8.52;2.47;;;4.50;99.90;;;;;;5036999;28;20080;-81
2022/01/06 00:41:34;;;;;;;5.50;2.00;;;4.60;99.90;;;;;;5019579;28;20056;-81
2022/01/06 00:44:00;;;;;;;9.93;2.15;;;4.70;99.90;;;;;;5017296;28;20731;-81
2022/01/06 00:46:26;;;;;;;5.65;2.60;;;4.60;99.90;;;;;;5037919;28;20049;-81
2022/01/06 00:48:52;;;;;;;5.88;2.25;;;4.60;99.90;;;;;;5019068;28;20082;-81
2022/01/06 00:51:17;;;;;;;6.22;2.35;;;4.60;99.90;;;;;;5018521;28;20126;-80
2022/01/06 00:53:43;;;;;;;5.38;1.92;;;4.60;99.90;;;;;;5019155;28;20137;-80
2022/01/06 00:56:08;;;;;;;6.80;3.08;;;4.60;99.90;;;;;;5037354;28;20056;-80
2022/01/06 00:58:34;;;;;;;6.07;2.05;;;4.60;99.90;;;;;;5019090;28;20114;-81
2022/01/06 01:01:00;;;;;;;10.18;3.33;;;4.60;99.90;;;;;;5017842;28;20066;-80
2022/01/06 01:03:27;;;;;;;12.35;2.45;;;4.60;99.90;;;;;;5018198;28;20048;-80
2022/01/06 01:05:55;;;;;;;10.30;3.45;;;4.50;99.90;;;;;;5036064;28;20110;-79
2022/01/06 01:08:22;;;;;;;7.55;2.90;;;4.50;99.90;;;;;;5020043;28;20080;-79
2022/01/06 01:10:49;;;;;;;6.15;2.15;;;4.50;99.90;;;;;;5020448;28;20437;-79
2022/01/06 01:13:16;;;;;;;14.02;3.55;;;4.50;99.90;;;;;;5038575;28;20088;-80
2022/01/06 01:15:53;;;;;;;10.07;3.63;;;4.40;99.90;;;;;;5020545;28;20412;-79
2022/01/06 01:18:19;;;;;;;8.55;2.53;;;4.40;99.90;;;;;;5020225;28;20057;-79
2022/01/06 01:20:54;;;;;;;12.27;2.40;;;4.40;99.90;;;;;;5037572;28;20048;-79
2022/01/06 01:23:21;;;;;;;6.30;2.40;;;4.00;99.90;;;;;;5020915;28;20057;-79
2022/01/06 01:25:47;;;;;;;5.95;2.88;;;4.30;99.90;;;;;;5038033;28;20151;-79
2022/01/06 01:28:15;;;;;;;18.08;4.50;;;4.20;99.90;;;;;;5019905;28;20136;-79
2022/01/06 01:30:53;;;;;;;7.35;2.83;;;4.20;99.90;;;;;;5020862;28;20057;-78
2022/01/06 01:33:19;;;;;;;6.97;2.60;;;4.20;99.90;;;;;;5019842;28;20772;-79
2022/01/06 01:35:45;;;;;;;12.02;3.40;;;4.20;99.90;;;;;;5020591;28;20055;-79
2022/01/06 01:38:11;;;;;;;6.93;2.60;;;4.20;99.90;;;;;;5019220;28;20059;-79
2022/01/06 01:40:37;;;;;;;7.55;2.60;;;4.20;99.90;;;;;;5019107;28;20079;-78
2022/01/06 01:43:04;;;;;;;7.25;2.80;;;4.10;99.90;;;;;;5038786;28;20045;-79
2022/01/06 01:45:33;;;;;;;5.40;2.08;;;4.10;99.90;;;;;;5019947;28;20148;-79
2022/01/06 01:48:03;;;;;;;6.65;3.75;;;4.10;99.90;;;;;;5037671;28;20049;-78
2022/01/06 01:50:29;;;;;;;11.40;4.32;;;4.10;99.90;;;;;;5020258;28;20057;-79
2022/01/06 01:52:57;;;;;;;7.53;3.00;;;4.10;99.90;;;;;;5020365;28;20160;-79
2022/01/06 01:55:26;;;;;;;6.75;2.25;;;4.00;99.90;;;;;;5019085;28;20110;-80
2022/01/06 01:57:52;;;;;;;9.40;2.60;;;4.10;99.90;;;;;;5019222;28;20044;-80
2022/01/06 02:00:20;;;;;;;14.80;3.80;;;4.00;99.90;;;;;;5019771;28;20231;-80
2022/01/06 02:02:45;;;;;;;7.72;2.45;;;4.00;99.90;;;;;;5018927;28;20134;-79
2022/01/06 02:05:11;;;;;;;8.02;3.00;;;4.00;99.90;;;;;;5036664;28;20045;-80
2022/01/06 02:07:41;;;;;;;10.05;2.95;;;4.10;99.90;;;;;;5018565;28;20053;-80
2022/01/06 02:10:09;;;;;;;7.65;3.35;;;4.10;99.90;;;;;;5036546;28;20052;-80
2022/01/06 02:12:37;;;;;;;4.68;2.20;;;4.10;99.90;;;;;;5018592;28;20045;-80
2022/01/06 02:15:08;;;;;;;12.50;3.28;;;4.10;99.90;;;;;;5035702;28;20045;-80
2022/01/06 02:17:34;;;;;;;11.68;2.65;;;4.10;99.90;;;;;;5018824;28;20045;-80
2022/01/06 02:20:02;;;;;;;9.40;3.00;;;4.10;99.90;;;;;;5036228;28;20122;-80
2022/01/06 02:22:27;;;;;;;6.05;2.45;;;4.20;99.90;;;;;;5017833;28;20646;-80
2022/01/06 02:24:53;;;;;;;4.68;2.40;;;3.10;99.90;;;;;;5036234;28;20041;-80
2022/01/06 02:27:20;;;;;;;6.70;2.25;;;4.20;99.90;;;;;;5018252;28;20471;-80
2022/01/06 02:29:51;;;;;;;8.35;1.85;;;4.20;99.90;;;;;;5035916;28;20526;-80
2022/01/06 02:32:19;;;;;;;14.77;3.63;;;4.20;99.90;;;;;;5017837;28;20144;-80
2022/01/06 02:34:45;;;;;;;6.13;2.40;;;4.20;99.90;;;;;;5037472;28;20049;-80
2022/01/06 02:37:13;;;;;;;17.23;4.10;;;4.20;99.90;;;;;;5019297;28;20412;-80
2022/01/06 02:39:38;;;;;;;7.40;2.53;;;4.20;99.90;;;;;;5017041;28;20890;-78
2022/01/06 02:42:05;;;;;;;8.88;3.42;;;4.20;99.90;;;;;;4996172;28;20054;-78
2022/01/06 02:44:31;;;;;;;5.60;2.20;;;4.20;99.90;;;;;;4997499;28;20080;-78
2022/01/06 02:46:57;;;;;;;4.97;2.28;;;4.20;99.90;;;;;;4996364;28;20141;-78
2022/01/06 02:49:22;;;;;;;5.47;2.22;;;4.20;99.90;;;;;;5006261;28;20061;-79
2022/01/06 02:51:48;;;;;;;5.68;2.88;;;4.20;99.90;;;;;;5016874;28;20053;-79
2022/01/06 02:54:14;;;;;;;16.38;3.22;;;4.20;99.90;;;;;;5017691;28;20049;-78
2022/01/06 02:56:42;;;;;;;11.85;2.90;;;3.60;99.90;;;;;;5016519;28;20096;-79
2022/01/06 02:59:09;;;;;;;4.90;1.95;;;4.20;99.90;;;;;;5016716;28;20042;-80
2022/01/06 03:01:39;;;;;;;4.00;1.92;;;4.10;99.90;;;;;;5016244;28;20053;-79
2022/01/06 03:04:05;;;;;;;8.90;3.40;;;4.10;99.90;;;;;;5016829;28;20432;-79
2022/01/06 03:06:31;;;;;;;10.40;2.70;;;4.10;99.90;;;;;;5016426;28;20057;-80
2022/01/06 03:08:56;;;;;;;9.75;2.88;;;4.00;99.90;;;;;;5017990;28;20057;-79
2022/01/06 03:11:25;;;;;;;6.38;3.22;;;4.10;99.90;;;;;;5015988;28;20041;-80
2022/01/06 03:13:52;;;;;;;7.63;2.83;;;4.00;99.90;;;;;;5016714;28;20140;-79
2022/01/06 03:16:17;;;;;;;9.43;3.03;;;4.00;99.90;;;;;;5014053;28;20068;-79
2022/01/06 03:18:43;;;;;;;7.05;2.38;;;4.00;99.90;;;;;;5017453;28;20045;-79
2022/01/06 03:21:09;;;;;;;11.07;3.17;;;3.90;99.90;;;;;;5017042;28;20053;-79
2022/01/06 03:23:34;;;;;;;4.47;2.03;;;3.90;99.90;;;;;;5017938;28;20896;-78
2022/01/06 03:26:00;;;;;;;5.88;2.70;;;3.90;99.90;;;;;;5018066;28;20662;-79
2022/01/06 03:28:25;;;;;;;7.20;2.50;;;3.90;99.90;;;;;;5016706;28;20057;-79
2022/01/06 03:30:51;;;;;;;8.13;2.67;;;3.90;99.90;;;;;;5017906;28;20049;-79
2022/01/06 03:33:16;;;;;;;6.65;3.00;;;3.90;99.90;;;;;;5017640;28;20058;-79
2022/01/06 03:35:42;;;;;;;7.32;3.10;;;3.80;99.90;;;;;;5017279;28;20053;-79
2022/01/06 03:38:07;;;;;;;6.72;3.47;;;3.80;99.90;;;;;;5018439;28;20171;-79
2022/01/06 03:40:33;;;;;;;9.10;2.33;;;3.80;99.90;;;;;;5016667;28;20057;-79
2022/01/06 03:42:59;;;;;;;7.40;3.03;;;3.90;99.90;;;;;;5037566;28;20060;-79
2022/01/06 03:45:24;;;;;;;7.03;3.50;;;3.80;99.90;;;;;;5035488;28;20060;-80
2022/01/06 03:47:50;;;;;;;3.65;1.77;;;3.80;99.90;;;;;;5018535;28;20055;-79
2022/01/06 03:50:16;;;;;;;8.18;2.05;;;3.80;99.90;;;;;;5040399;28;20048;-80
2022/01/06 03:52:43;;;;;;;6.30;2.40;;;3.80;99.90;;;;;;5021360;28;20582;-79
2022/01/06 03:55:12;;;;;;;6.18;2.47;;;3.80;99.90;;;;;;5022717;28;20063;-79
2022/01/06 03:57:37;;;;;;;4.95;2.70;;;3.80;99.90;;;;;;5023049;28;20049;-79
2022/01/06 04:00:10;;;;;;;5.63;3.10;;;3.80;99.90;;;;;;5022389;28;20551;-81
2022/01/06 04:02:36;;;;;;;14.68;3.38;;;3.70;99.90;;;;;;5021373;28;20106;-81
2022/01/06 04:05:05;;;;;;;4.72;2.47;;;3.60;99.90;;;;;;5022648;28;20056;-80
2022/01/06 04:07:32;;;;;;;8.07;2.95;;;3.50;99.90;;;;;;5039495;28;20406;-80
2022/01/06 04:09:58;;;;;;;6.10;1.90;;;3.50;99.90;;;;;;5021002;28;20186;-79
2022/01/06 04:12:23;;;;;;;7.25;2.75;;;3.40;99.90;;;;;;5021465;28;20123;-79
2022/01/06 04:14:49;;;;;;;5.53;1.95;;;3.40;99.90;;;;;;5038066;28;20825;-80
2022/01/06 04:17:15;;;;;;;4.70;2.10;;;3.40;99.90;;;;;;5019348;28;20068;-80
2022/01/06 04:19:40;;;;;;;7.70;2.60;;;3.30;99.90;;;;;;5037012;28;20060;-80
2022/01/06 04:22:06;;;;;;;4.28;2.65;;;3.20;99.90;;;;;;5018809;28;20472;-80
2022/01/06 04:24:32;;;;;;;6.18;2.20;;;3.10;99.90;;;;;;5021351;28;20496;-80
2022/01/06 04:26:58;;;;;;;3.25;2.00;;;3.10;99.90;;;;;;5038567;28;20568;-79
2022/01/06 04:29:24;;;;;;;6.15;2.92;;;3.10;99.90;;;;;;5020907;28;20051;-79
2022/01/06 04:31:49;;;;;;;3.70;2.08;;;3.10;99.90;;;;;;5021692;28;20098;-80
2022/01/06 04:34:15;;;;;;;4.80;2.20;;;3.00;99.90;;;;;;5019796;28;20440;-80
2022/01/06 04:36:47;;;;;;;9.57;3.10;;;3.00;99.90;;;;;;5036422;28;20045;-80
2022/01/06 04:39:13;;;;;;;38.92;7.10;;;2.90;99.90;;;;;;5018450;28;20568;-80
2022/01/06 04:41:38;;;;;;;11.48;2.80;;;2.90;99.90;;;;;;5017499;28;20061;-79
2022/01/06 04:44:04;;;;;;;4.50;1.23;;;2.80;99.90;;;;;;5016763;28;20826;-80
2022/01/06 04:46:29;;;;;;;7.03;2.55;;;2.80;99.90;;;;;;5018740;28;20177;-79
2022/01/06 04:48:55;;;;;;;8.73;2.10;;;2.80;99.90;;;;;;5019340;28;20049;-73
2022/01/06 04:51:21;;;;;;;7.05;2.42;;;2.70;99.90;;;;;;5019636;28;20758;-80
2022/01/06 04:53:46;;;;;;;9.20;2.67;;;2.60;99.90;;;;;;5016218;28;20937;-80
2022/01/06 04:56:12;;;;;;;7.82;2.60;;;2.60;99.90;;;;;;5016814;28;20119;-79
2022/01/06 04:58:37;;;;;;;3.50;1.77;;;2.60;99.90;;;;;;5017945;28;20519;-79
2022/01/06 05:01:03;;;;;;;7.63;2.20;;;2.50;99.90;;;;;;5015710;28;20053;-79
2022/01/06 05:03:29;;;;;;;7.55;2.00;;;2.50;99.90;;;;;;5018072;28;20053;-80
2022/01/06 05:05:54;;;;;;;4.10;2.47;;;2.40;99.90;;;;;;5017897;28;20165;-80
2022/01/06 05:08:20;;;;;;;12.07;2.80;;;2.40;99.90;;;;;;5016927;28;20052;-80
2022/01/06 05:10:45;;;;;;;12.70;2.75;;;2.40;99.90;;;;;;5016542;28;20051;-79
2022/01/06 05:13:11;;;;;;;7.10;3.17;;;2.40;99.90;;;;;;5014278;28;20072;-80
2022/01/06 05:15:36;;;;;;;9.93;3.38;;;2.40;99.90;;;;;;5017122;28;20428;-80
2022/01/06 05:18:02;;;;;;;4.93;2.50;;;2.40;99.90;;;;;;5016321;28;20492;-80
2022/01/06 05:20:28;;;;;;;10.10;3.50;;;2.40;99.90;;;;;;5018927;28;20068;-80
2022/01/06 05:22:57;;;;;;;6.55;2.92;;;2.40;99.90;;;;;;5018623;28;20044;-81
2022/01/06 05:25:28;;;;;;;6.45;3.05;;;2.40;99.90;;;;;;5017889;28;20055;-80
2022/01/06 05:27:54;;;;;;;9.18;3.55;;;2.40;99.90;;;;;;5017734;28;20054;-81
2022/01/06 05:30:21;;;;;;;6.93;2.33;;;2.80;99.90;;;;;;5018788;28;20049;-81
2022/01/06 05:32:46;;;;;;;6.82;3.20;;;2.40;99.90;;;;;;5016587;28;20148;-81
2022/01/06 05:35:12;;;;;;;5.72;2.28;;;2.40;99.90;;;;;;5015787;28;20562;-81
2022/01/06 05:37:38;;;;;;;11.93;2.80;;;2.40;99.90;;;;;;5015875;28;20030;-81
2022/01/06 05:40:04;;;;;;;9.00;2.80;;;2.40;99.90;;;;;;5014129;28;20061;-81
2022/01/06 05:42:29;;;;;;;6.55;2.80;;;2.40;99.90;;;;;;5015134;28;20365;-81
2022/01/06 05:44:55;;;;;;;6.63;2.30;;;2.40;99.90;;;;;;5015695;28;20092;-81
2022/01/06 05:47:21;;;;;;;7.85;2.95;;;2.40;99.90;;;;;;5015013;28;20073;-81
2022/01/06 05:49:46;;;;;;;7.00;2.63;;;2.30;99.90;;;;;;5016245;28;20049;-81
2022/01/06 05:52:12;;;;;;;7.63;2.58;;;2.30;99.90;;;;;;5012683;28;20456;-81
2022/01/06 05:54:39;;;;;;;5.80;2.42;;;2.30;99.90;;;;;;5008028;28;20049;-81
2022/01/06 05:57:06;;;;;;;8.05;3.13;;;2.30;99.90;;;;;;5014081;28;20112;-81
2022/01/06 05:59:32;;;;;;;4.57;2.35;;;2.30;99.90;;;;;;5011500;28;20049;-82
2022/01/06 06:01:59;;;;;;;8.80;2.20;;;2.30;99.90;;;;;;5010858;28;20689;-82
2022/01/06 06:04:24;;;;;;;6.20;2.55;;;2.30;99.90;;;;;;5013447;28;20573;-81
2022/01/06 06:06:50;;;;;;;8.88;3.03;;;2.30;99.90;;;;;;5011765;28;20045;-82
2022/01/06 06:09:16;;;;;;;5.70;2.15;;;2.20;99.90;;;;;;5013550;28;20077;-81
2022/01/06 06:11:41;;;;;;;5.18;2.72;;;2.30;99.90;;;;;;5013748;28;20152;-81
2022/01/06 06:14:07;;;;;;;5.70;2.67;;;2.30;99.90;;;;;;5012875;28;20049;-81
2022/01/06 06:16:32;;;;;;;5.32;2.25;;;2.30;99.90;;;;;;5013493;28;20037;-81
2022/01/06 06:18:58;;;;;;;9.82;3.53;;;2.20;99.90;;;;;;5012709;28;20049;-81
2022/01/06 06:21:24;;;;;;;9.25;2.72;;;2.30;99.90;;;;;;5012119;28;20045;-81
2022/01/06 06:23:50;;;;;;;10.50;3.00;;;2.20;99.90;;;;;;5014213;28;20485;-82
2022/01/06 06:26:15;;;;;;;14.02;4.00;;;2.20;99.90;;;;;;5013889;28;20595;-81
2022/01/06 06:28:41;;;;;;;11.07;2.92;;;2.30;99.90;;;;;;5007107;28;20041;-81
2022/01/06 06:31:07;;;;;;;7.45;2.70;;;2.10;99.90;;;;;;5012867;28;20111;-81
2022/01/06 06:33:33;;;;;;;8.25;3.03;;;2.20;99.90;;;;;;5013996;28;20087;-81
2022/01/06 06:35:58;;;;;;;7.78;3.22;;;2.20;99.90;;;;;;5013126;28;20115;-81
2022/01/06 06:38:24;;;;;;;7.32;3.72;;;2.20;99.90;;;;;;5011925;28;20052;-82
2022/01/06 06:40:50;;;;;;;5.45;2.40;;;2.20;99.90;;;;;;5015430;28;20653;-82
2022/01/06 06:43:15;;;;;;;7.57;3.70;;;2.20;99.90;;;;;;5014788;28;20052;-82
2022/01/06 06:45:42;;;;;;;8.25;3.33;;;2.30;99.90;;;;;;5015755;28;20127;-81
2022/01/06 06:48:08;;;;;;;10.90;2.90;;;2.20;99.90;;;;;;5033758;28;20155;-82
2022/01/06 06:50:34;;;;;;;5.38;2.28;;;2.20;99.90;;;;;;5032227;28;20036;-80
2022/01/06 06:52:59;;;;;;;3.88;2.42;;;2.20;99.90;;;;;;5015341;28;20080;-81
2022/01/06 06:55:25;;;;;;;10.93;3.08;;;2.20;99.90;;;;;;5015720;28;20155;-80
2022/01/06 06:57:50;;;;;;;8.13;2.92;;;2.30;99.90;;;;;;5014576;28;20087;-81
2022/01/06 07:00:17;;;;;;;9.57;3.25;;;2.20;99.90;;;;;;5014498;28;20110;-81
2022/01/06 07:02:43;;;;;;;14.73;3.03;;;2.30;99.90;;;;;;5030790;28;20040;-81
2022/01/06 07:05:09;;;;;;;8.65;2.72;;;2.20;99.90;;;;;;5031620;28;20501;-80
2022/01/06 07:07:35;;;;;;;4.90;2.50;;;2.20;99.90;;;;;;5015523;28;20052;-80
2022/01/06 07:10:01;;;;;;;7.15;3.38;;;2.20;99.90;;;;;;5014866;28;20497;-80
2022/01/06 07:12:27;;;;;;;13.52;3.45;;;2.30;99.90;;;;;;5032890;28;20052;-80
2022/01/06 07:14:53;;;;;;;8.30;2.60;;;2.20;99.90;;;;;;5033305;28;20838;-80
2022/01/06 07:17:18;;;;;;;5.25;3.10;;;2.30;99.90;;;;;;5033105;28;20037;-81
2022/01/06 07:19:44;;;;;;;7.15;3.13;;;2.20;99.90;;;;;;5033142;28;20959;-81
2022/01/06 07:22:10;;;;;;;6.55;3.47;;;2.20;99.90;;;;;;5033127;28;20094;-81
2022/01/06 07:24:36;;;;;;;6.28;2.95;;;2.20;99.90;;;;;;5035125;28;20175;-81
2022/01/06 07:27:03;;;;;;;7.80;2.67;;;2.30;99.90;;;;;;5019394;28;20594;-80
2022/01/06 07:29:29;;;;;;;8.77;4.13;;;2.30;99.90;;;;;;5019189;28;20140;-81
2022/01/06 07:31:54;;;;;;;6.35;2.50;;;2.30;99.90;;;;;;5037021;28;20041;-81
2022/01/06 07:34:21;;;;;;;10.50;3.60;;;2.30;99.90;;;;;;5019193;28;20127;-81
2022/01/06 07:36:46;;;;;;;10.45;3.90;;;2.30;99.90;;;;;;5036822;28;20045;-81
2022/01/06 07:39:12;;;;;;;8.90;2.83;;;2.20;99.90;;;;;;5018450;28;20117;-80
2022/01/06 07:41:37;;;;;;;8.27;2.92;;;2.30;99.90;;;;;;5036984;28;20190;-81
2022/01/06 07:44:07;;;;;;;10.05;2.88;;;2.30;99.90;;;;;;5037087;28;20072;-81
2022/01/06 07:46:34;;;;;;;8.25;2.92;;;2.30;99.90;;;;;;5019020;28;20084;-81
2022/01/06 07:48:59;;;;;;;5.45;3.22;;;2.30;99.90;;;;;;5037770;28;20059;-81
2022/01/06 07:51:27;;;;;;;8.70;4.43;;;2.30;99.90;;;;;;5016954;28;20044;-81
2022/01/06 07:53:53;;;;;;;9.02;3.22;;;2.30;99.90;;;;;;5038220;28;20056;-81
2022/01/06 07:56:19;;;;;;;11.15;4.38;;;2.30;99.90;;;;;;5041655;28;20079;-81
2022/01/06 07:58:45;;;;;;;20.02;5.22;;;2.30;99.90;;;;;;5023411;28;20053;-81
2022/01/06 08:01:11;;;;;;;10.13;2.88;;;2.30;99.90;;;;;;5040962;28;20061;-81
2022/01/06 08:03:37;;;;;;;14.02;3.80;;;2.30;99.90;;;;;;5023946;28;20179;-80
2022/01/06 08:06:03;;;;;;;7.07;3.35;;;2.30;99.90;;;;;;5022763;28;20049;-81
2022/01/06 08:08:28;;;;;;;11.45;3.33;;;2.40;99.90;;;;;;5040520;28;20471;-80
2022/01/06 08:10:54;;;;;;;4.60;2.33;;;2.40;99.90;;;;;;5041281;28;20102;-80
2022/01/06 08:13:19;;;;;;;13.52;3.30;;;2.40;99.90;;;;;;5041077;28;20109;-80
2022/01/06 08:15:45;;;;;;;9.70;4.35;;;2.30;99.90;;;;;;5022850;28;20065;-80
2022/01/06 08:18:11;;;;;;;9.25;3.20;;;2.40;99.90;;;;;;5022732;28;20080;-80
2022/01/06 08:20:38;;;;;;;8.73;3.08;;;2.40;99.90;;;;;;5023081;28;20091;-80
2022/01/06 08:23:04;;;;;;;7.55;2.70;;;2.40;99.90;;;;;;5022966;28;20057;-80
2022/01/06 08:25:30;;;;;;;12.23;4.30;;;2.40;99.90;;;;;;5022651;28;20057;-80
2022/01/06 08:27:55;;;;;;;8.18;3.85;;;2.40;99.90;;;;;;5040350;28;20056;-80
2022/01/06 08:30:21;;;;;;;10.30;4.00;;;2.40;99.90;;;;;;5022208;28;20045;-81
2022/01/06 08:32:46;;;;;;;12.55;3.88;;;2.50;99.90;;;;;;5040678;28;20044;-80
2022/01/06 08:35:12;;;;;;;10.13;4.93;;;2.50;99.90;;;;;;5020932;28;20109;-81
2022/01/06 08:37:38;;;;;;;10.88;3.45;;;2.50;99.90;;;;;;5022277;28;20126;-80
2022/01/06 08:40:04;;;;;;;9.90;3.20;;;2.50;99.90;;;;;;5022144;28;20049;-80
2022/01/06 08:42:30;;;;;;;6.32;3.90;;;2.50;99.90;;;;;;5017346;28;20110;-80
2022/01/06 08:44:55;;;;;;;7.70;3.33;;;2.50;99.90;;;;;;5018092;28;20574;-78
2022/01/06 08:47:22;;;;;;;11.40;3.38;;;2.50;99.90;;;;;;4676613;28;9999870;-78
2022/01/06 08:49:47;;;;;;;6.10;4.03;;;2.50;99.90;;;;;;5031864;28;20877;-80
2022/01/06 08:52:13;;;;;;;10.02;3.97;;;2.60;99.90;;;;;;5015746;28;20055;-80
2022/01/06 08:54:39;;;;;;;8.73;3.85;;;3.30;99.90;;;;;;5015709;28;20384;-81
2022/01/06 08:57:04;;;;;;;9.48;4.55;;;2.70;99.90;;;;;;5017250;28;20121;-84
2022/01/06 08:59:30;;;;;;;17.63;3.70;;;2.70;99.90;;;;;;5016847;28;20762;-83
2022/01/06 09:01:56;;;;;;;12.07;3.05;;;2.80;99.90;;;;;;5018293;28;20080;-84
2022/01/06 09:04:21;;;;;;;19.05;3.88;;;2.80;99.90;;;;;;5015396;28;20057;-83
2022/01/06 09:06:48;;;;;;;6.93;3.10;;;2.80;99.90;;;;;;5017061;28;20138;-83
2022/01/06 09:09:14;;;;;;;11.75;3.78;;;2.90;99.90;;;;;;5018078;28;20045;-83
2022/01/06 09:11:40;;;;;;;8.77;3.97;;;2.90;99.90;;;;;;5016444;28;20053;-83
2022/01/06 09:14:06;;;;;;;12.48;5.63;;;3.00;99.90;;;;;;5017320;28;20056;-83
2022/01/06 09:16:31;;;;;;;8.88;6.03;;;3.00;99.90;;;;;;5016656;28;20837;-83
2022/01/06 09:18:57;;;;;;;23.00;12.65;;;3.00;99.90;;;;;;5015706;28;20049;-83
2022/01/06 09:21:24;;;;;;;10.32;4.20;;;3.10;99.90;;;;;;5016342;28;20067;-83
2022/01/06 09:23:51;;;;;;;6.85;3.97;;;3.10;99.90;;;;;;5017709;28;20057;-83
2022/01/06 09:26:17;;;;;;;7.15;3.42;;;3.20;99.90;;;;;;5017485;28;20045;-83
2022/01/06 09:28:44;;;;;;;5.97;3.20;;;3.20;99.90;;;;;;5016611;28;20409;-83
2022/01/06 09:31:09;;;;;;;7.80;4.55;;;3.30;99.90;;;;;;5015831;28;20061;-76
2022/01/06 09:33:35;;;;;;;8.32;3.45;;;3.30;99.90;;;;;;5015930;28;20414;-74
2022/01/06 09:36:00;;;;;;;9.88;3.42;;;3.40;99.90;;;;;;5017508;28;20531;-74
2022/01/06 09:38:26;;;;;;;8.82;3.30;;;3.40;99.90;;;;;;5015898;28;20437;-74
2022/01/06 09:40:52;;;;;;;9.40;3.55;;;3.40;99.90;;;;;;5017860;28;20480;-74
2022/01/06 09:43:25;;;;;;;9.85;3.05;;;3.40;99.90;;;;;;5036538;28;20052;-82
2022/01/06 09:45:51;;;;;;;;;;;3.50;99.90;;;;;;5019376;28;20174;-81
2022/01/06 09:48:19;;;;;;;13.10;4.10;;;3.50;99.90;;;;;;5018535;28;20451;-74
2022/01/06 09:50:45;;;;;;;6.03;3.20;;;3.50;99.90;;;;;;5018887;28;20048;-81
2022/01/06 09:53:11;;;;;;;9.38;3.70;;;3.30;99.90;;;;;;5017739;28;20463;-81
2022/01/06 09:55:38;;;;;;;7.65;2.67;;;3.60;99.90;;;;;;5037175;28;20098;-82
2022/01/06 09:58:04;;;;;;;11.98;3.53;;;3.70;99.90;;;;;;5038472;28;20095;-82
2022/01/06 10:00:32;;;;;;;7.45;3.58;;;3.70;99.90;;;;;;5019510;28;20749;-82
2022/01/06 10:03:00;;;;;;;10.77;3.05;;;3.80;99.90;;;;;;5019383;28;20059;-81
2022/01/06 10:05:26;;;;;;;20.75;4.53;;;3.80;99.90;;;;;;5036784;28;20037;-81
2022/01/06 10:07:53;;;;;;;11.57;3.13;;;3.80;99.90;;;;;;5018363;28;20045;-81
2022/01/06 10:10:25;;;;;;;11.02;4.00;;;3.90;99.90;;;;;;5036280;28;20166;-81
2022/01/06 10:12:56;;;;;;;8.02;2.70;;;4.00;99.90;;;;;;5020882;28;20053;-82
2022/01/06 10:15:24;;;;;;;5.82;3.50;;;4.00;99.90;;;;;;5037475;28;20051;-82
2022/01/06 10:17:50;;;;;;;9.93;4.07;;;4.00;99.90;;;;;;5019081;28;20045;-81
2022/01/06 10:20:18;;;;;;;7.40;3.45;;;4.10;99.90;;;;;;5035857;28;20044;-80
2022/01/06 10:22:51;;;;;;;10.32;4.47;;;4.10;99.90;;;;;;5035401;28;20059;-81
2022/01/06 10:25:18;;;;;;;8.88;3.13;;;4.20;99.90;;;;;;5018965;28;20052;-81
2022/01/06 10:27:49;;;;;;;10.25;3.08;;;4.20;99.90;;;;;;5036093;28;20049;-81
2022/01/06 10:30:15;;;;;;;7.20;3.35;;;4.20;99.90;;;;;;5035675;28;20044;-81
2022/01/06 10:32:42;;;;;;;9.90;3.67;;;4.30;99.90;;;;;;5017719;28;20136;-82
2022/01/06 10:35:09;;;;;;;6.25;3.10;;;4.30;99.90;;;;;;5017233;28;20049;-81
2022/01/06 10:37:44;;;;;;;10.43;3.53;;;4.40;99.90;;;;;;5017305;28;20110;-81
2022/01/06 10:40:26;;;;;;;7.93;3.88;;;4.50;99.90;;;;;;5035876;28;20095;-81
2022/01/06 10:42:55;;;;;;;16.35;5.00;;;4.50;99.90;;;;;;5034963;28;20499;-80
2022/01/06 10:45:25;;;;;;;10.55;2.92;;;4.60;99.90;;;;;;5017881;28;20056;-72
2022/01/06 10:47:56;;;;;;;5.18;3.28;;;4.60;99.90;;;;;;4668439;28;10000012;-82
2022/01/06 10:50:37;;;;;;;8.77;3.30;;;4.70;99.90;;;;;;5011198;28;20888;-82
2022/01/06 10:53:08;;;;;;;7.90;3.03;;;4.70;99.90;;;;;;5009735;28;20045;-82
2022/01/06 10:55:37;;;;;;;7.70;2.85;;;4.70;99.90;;;;;;5012004;28;20200;-82
2022/01/06 10:58:08;;;;;;;10.98;3.80;;;4.70;99.90;;;;;;5030264;28;20048;-82
2022/01/06 11:00:53;;;;;;;8.02;3.42;;;4.80;99.90;;;;;;5011038;28;20562;-81
2022/01/06 11:03:33;;;;;;;8.23;3.30;;;4.80;99.90;;;;;;5013096;28;20056;-81
2022/01/06 11:06:00;;;;;;;9.07;4.05;;;4.90;99.90;;;;;;5032338;28;20049;-80
2022/01/06 11:08:29;;;;;;;13.70;5.15;;;5.00;99.90;;;;;;5015293;28;20045;-80
2022/01/06 11:13:38;;;;;;;8.68;3.90;;;5.00;99.90;;;;;;5033487;28;20053;-79
2022/01/06 11:16:05;;;;;;;12.50;3.25;;;5.10;99.90;;;;;;5014836;28;20885;-79
2022/01/06 11:18:31;;;;;;;10.90;3.67;;;5.10;99.90;;;;;;5032872;28;20094;-80
2022/01/06 11:21:09;;;;;;;11.38;4.03;;;5.20;99.90;;;;;;5034224;28;20076;-80
2022/01/06 11:23:35;;;;;;;15.57;4.40;;;5.30;99.90;;;;;;5015005;28;20934;-80
2022/01/06 11:26:11;;;;;;;17.67;4.28;;;5.30;99.90;;;;;;5015005;28;20056;-79
2022/01/06 11:28:37;;;;;;;8.13;4.13;;;5.40;99.90;;;;;;5013493;28;20045;-79
2022/01/06 11:31:15;;;;;;;9.88;4.45;;;5.20;99.90;;;;;;5033084;28;20045;-79
2022/01/06 11:33:42;;;;;;;12.27;3.78;;;5.50;99.90;;;;;;5014872;28;20045;-79
2022/01/06 11:36:17;;;;;;;6.70;3.08;;;5.50;99.90;;;;;;5032802;28;20040;-79
2022/01/06 11:38:48;;;;;;;11.43;3.20;;;5.50;99.90;;;;;;5018744;28;20060;-79
2022/01/06 11:41:14;;;;;;;7.82;3.63;;;5.50;99.90;;;;;;5017328;28;20114;-79
2022/01/06 11:43:42;;;;;;;7.95;3.20;;;5.60;99.90;;;;;;5014811;28;20044;-79
2022/01/06 11:46:08;;;;;;;12.85;3.63;;;5.60;99.90;;;;;;5037427;28;20045;-74
2022/01/06 11:48:57;;;;;;;5.60;2.70;;;5.70;99.90;;;;;;5035850;28;20499;-73
2022/01/06 11:51:26;;;;;;;11.55;3.70;;;5.70;99.90;;;;;;5034195;28;20754;-73
2022/01/06 11:53:52;;;;;;;16.23;4.30;;;5.80;99.90;;;;;;5015134;28;20055;-80
2022/01/06 11:56:17;;;;;;;10.90;3.75;;;5.80;99.90;;;;;;5034814;28;20059;-81
2022/01/06 11:58:56;;;;;;;11.15;3.30;;;5.80;99.90;;;;;;5017671;28;20052;-81
2022/01/06 12:01:21;;;;;;;11.20;3.78;;;5.90;99.90;;;;;;5017487;28;20053;-80
2022/01/06 12:03:47;;;;;;;8.35;3.67;;;5.90;99.90;;;;;;5034977;28;20456;-80
2022/01/06 12:06:25;;;;;;;14.50;3.45;;;6.00;99.90;;;;;;5034442;28;20052;-80
2022/01/06 12:08:51;;;;;;;9.63;3.95;;;6.00;99.90;;;;;;5017391;28;20053;-80
2022/01/06 12:11:23;;;;;;;11.82;3.65;;;6.10;99.90;;;;;;5020315;28;20052;-80
2022/01/06 12:13:50;;;;;;;6.93;2.95;;;6.10;99.90;;;;;;5036778;28;20049;-80
2022/01/06 12:16:25;;;;;;;8.52;3.88;;;6.10;99.90;;;;;;5019591;28;20052;-80
2022/01/06 12:18:50;;;;;;;6.00;2.88;;;6.20;99.90;;;;;;5036547;28;20157;-80
2022/01/06 12:21:17;;;;;;;9.23;3.03;;;6.20;99.90;;;;;;5036472;28;20128;-80
2022/01/06 12:23:43;;;;;;;6.85;3.20;;;6.30;99.90;;;;;;5036418;28;20102;-80
2022/01/06 12:26:11;;;;;;;11.77;4.15;;;6.30;99.90;;;;;;5037427;28;20821;-80
2022/01/06 12:28:48;;;;;;;10.80;3.75;;;6.30;99.90;;;;;;5037513;28;20851;-80
2022/01/06 12:31:21;;;;;;;7.55;3.15;;;6.30;99.90;;;;;;5020058;28;20057;-80
2022/01/06 12:33:49;;;;;;;7.97;2.70;;;6.40;99.90;;;;;;5020242;28;20114;-80
2022/01/06 12:36:20;;;;;;;9.15;2.95;;;6.40;99.90;;;;;;5019990;28;20879;-80
2022/01/06 12:38:47;;;;;;;19.05;3.45;;;6.40;99.90;;;;;;5020270;28;20064;-80
2022/01/06 12:41:13;;;;;;;6.57;2.83;;;6.50;99.90;;;;;;5019379;28;20159;-80
2022/01/06 12:43:41;;;;;;;9.25;3.38;;;6.50;99.90;;;;;;5019293;28;20465;-80
2022/01/06 12:46:06;;;;;;;5.22;2.92;;;6.50;99.90;;;;;;5019973;28;20117;-80
2022/01/06 12:48:38;;;;;;;17.73;3.35;;;6.50;99.90;;;;;;5019250;28;20522;-80
2022/01/06 12:51:04;;;;;;;8.07;3.10;;;6.50;99.90;;;;;;5019248;28;20072;-80
2022/01/06 12:53:31;;;;;;;7.80;3.20;;;6.60;99.90;;;;;;5018903;28;20057;-80
2022/01/06 12:55:57;;;;;;;11.75;3.17;;;6.60;99.90;;;;;;5019054;28;20095;-80
2022/01/06 12:58:32;;;;;;;8.07;3.10;;;6.50;99.90;;;;;;5019679;28;20136;-80
2022/01/06 13:01:00;;;;;;;9.05;3.03;;;6.60;99.90;;;;;;5019960;28;20576;-80
2022/01/06 13:03:35;;;;;;;8.05;3.05;;;6.60;99.90;;;;;;5017791;28;20400;-80